Aniara — SA5005 — position and weather

sailwx.info

Track history (hours):
 
Tides and Currents Weather Stations Pressure Air Temp Water Temp Dewpoint Dewpoint Depression Visibility Wind Speed Wind Dir Waves Ship Positions

Aniara

Last reported at 2017-Sep-20 15:11 UTC. Time now 2017-Oct-19 20:06 UTC.
Position N 38°39' W 009°06'.
Warning: this ship's position is 29 days out of date.

Length 11 m.

Type: Sailing vessel. MMSI: 265680720.

Date/timePositionNaut miles runAvg speedWind from/ knotsBaromVisibWave heightAir tempDewpointWater temp
2017-Sep-20 15:11N 38°39' W 009°06'  
2017-Sep-17 18:27N 38°41' W 009°13'2 4.5
2017-Sep-17 17:58N 38°42' W 009°16'3 3.1
2017-Sep-17 17:10N 38°41' W 009°19'0 1.7
2017-Sep-17 16:58N 38°40' W 009°19'3 3.3
2017-Sep-17 15:54N 38°41' W 009°23'0 0.3
2017-Sep-17 15:26N 38°41' W 009°23'1 1.8
2017-Sep-17 14:58N 38°41' W 009°23'1 1.9
2017-Sep-17 14:23N 38°40' W 009°22'2 4.8
2017-Sep-17 14:00N 38°40' W 009°20'2 4.5
2017-Sep-17 13:29N 38°41' W 009°17'2 3.4
2017-Sep-17 13:00N 38°41' W 009°15'  
2017-Sep-10 18:50N 38°41' W 009°13'2 4.2
2017-Sep-10 18:25N 38°41' W 009°16'4 5.8
2017-Sep-10 17:48N 38°40' W 009°20'4 2.2
2017-Sep-10 16:01N 38°42' W 009°25'  
Track history (hours):
 
Tides and Currents Weather Stations Pressure Air Temp Water Temp Dewpoint Dewpoint Depression Visibility Wind Speed Wind Dir Waves Ship Positions

Aniara

Last reported at 2017-Sep-20 15:11 UTC. Time now 2017-Oct-19 20:06 UTC.
Position N 38°39' W 009°06'.
Warning: this ship's position is 29 days out of date.

Length 11 m.

Type: Sailing vessel. MMSI: 265680720.

Date/timePositionNaut miles runAvg speedWind from/ knotsBaromVisibWave heightAir tempDewpointWater temp
2017-Sep-20 15:11N 38°39' W 009°06'  
2017-Sep-17 18:27N 38°41' W 009°13'2 4.5
2017-Sep-17 17:58N 38°42' W 009°16'3 3.1
2017-Sep-17 17:10N 38°41' W 009°19'0 1.7
2017-Sep-17 16:58N 38°40' W 009°19'3 3.3
2017-Sep-17 15:54N 38°41' W 009°23'0 0.3
2017-Sep-17 15:26N 38°41' W 009°23'1 1.8
2017-Sep-17 14:58N 38°41' W 009°23'1 1.9
2017-Sep-17 14:23N 38°40' W 009°22'2 4.8
2017-Sep-17 14:00N 38°40' W 009°20'2 4.5
2017-Sep-17 13:29N 38°41' W 009°17'2 3.4
2017-Sep-17 13:00N 38°41' W 009°15'  
2017-Sep-10 18:50N 38°41' W 009°13'2 4.2
2017-Sep-10 18:25N 38°41' W 009°16'4 5.8
2017-Sep-10 17:48N 38°40' W 009°20'4 2.2
2017-Sep-10 16:01N 38°42' W 009°25'  

Dump ship's entire track history